createdAt,value
2022-08-08T00:00:52.189Z,19.34
2022-08-08T00:03:31.520Z,19.29
2022-08-08T00:06:28.322Z,19.31
2022-08-08T00:09:34.725Z,19.25
2022-08-08T00:12:10.658Z,19.25
2022-08-08T00:14:57.117Z,19.21
2022-08-08T00:18:12.307Z,19.19
2022-08-08T00:20:59.112Z,19.14
2022-08-08T00:23:42.462Z,19.15
2022-08-08T00:26:43.545Z,19.08
2022-08-08T00:29:45.283Z,19.07
2022-08-08T00:32:34.892Z,18.97
2022-08-08T00:35:41.344Z,19.04
2022-08-08T00:38:16.981Z,18.97
2022-08-08T00:41:55.592Z,18.88
2022-08-08T00:44:44.218Z,18.85
2022-08-08T00:48:02.097Z,18.78
2022-08-08T00:50:55.417Z,18.76
2022-08-08T00:54:04.281Z,18.85
2022-08-08T00:56:52.021Z,18.89
2022-08-08T01:00:06.372Z,18.63
2022-08-08T01:03:59.157Z,18.64
2022-08-08T01:06:16.357Z,18.61
2022-08-08T01:09:35.034Z,18.47
2022-08-08T01:12:43.148Z,18.49
2022-08-08T01:15:54.357Z,18.50
2022-08-08T01:18:52.834Z,18.53
2022-08-08T01:22:13.084Z,18.47
2022-08-08T01:25:43.910Z,18.28
2022-08-08T01:28:36.889Z,18.27
2022-08-08T01:32:14.723Z,18.26
2022-08-08T01:35:29.686Z,18.20
2022-08-08T01:38:51.115Z,18.26
2022-08-08T01:41:34.481Z,18.27
2022-08-08T01:44:53.533Z,18.10
2022-08-08T01:48:13.887Z,18.01
2022-08-08T01:51:17.156Z,18.00
2022-08-08T01:55:44.891Z,17.91
2022-08-08T01:58:10.959Z,17.87
2022-08-08T02:01:03.527Z,17.91
2022-08-08T02:03:54.903Z,17.89
2022-08-08T02:07:05.630Z,17.84
2022-08-08T02:10:01.949Z,18.03
2022-08-08T02:12:31.183Z,17.95
2022-08-08T02:15:11.107Z,17.91
2022-08-08T02:18:43.343Z,17.67
2022-08-08T02:21:49.126Z,17.80
2022-08-08T02:24:32.175Z,17.82
2022-08-08T02:27:16.986Z,17.65
2022-08-08T02:30:20.931Z,17.80
2022-08-08T02:33:41.373Z,17.77
2022-08-08T02:36:45.126Z,17.62
2022-08-08T02:39:42.653Z,17.71
2022-08-08T02:42:41.554Z,17.70
2022-08-08T02:45:54.030Z,17.72
2022-08-08T02:48:42.633Z,17.72
2022-08-08T02:51:46.563Z,17.68
2022-08-08T02:54:30.158Z,17.66
2022-08-08T02:57:51.316Z,17.67
2022-08-08T03:00:51.030Z,17.47
2022-08-08T03:05:04.670Z,17.59
2022-08-08T03:07:07.218Z,17.55
2022-08-08T03:10:31.446Z,17.04
2022-08-08T03:13:33.939Z,16.98
2022-08-08T03:16:37.308Z,16.66
2022-08-08T03:19:51.103Z,16.60
2022-08-08T03:22:38.853Z,16.74
2022-08-08T03:25:14.424Z,16.72
2022-08-08T03:27:56.303Z,16.81
2022-08-08T03:30:29.537Z,16.71
2022-08-08T03:33:54.827Z,16.74
2022-08-08T03:36:10.414Z,16.71
2022-08-08T03:38:57.604Z,16.62
2022-08-08T03:42:26.667Z,16.56
2022-08-08T03:44:25.557Z,16.43
2022-08-08T03:46:53.235Z,16.53
2022-08-08T03:49:57.465Z,16.62
2022-08-08T03:52:13.250Z,16.82
2022-08-08T03:55:02.035Z,16.82
2022-08-08T03:58:30.675Z,16.96
2022-08-08T04:00:26.263Z,16.79
2022-08-08T04:03:11.773Z,16.67
2022-08-08T04:05:47.922Z,16.88
2022-08-08T04:08:32.995Z,16.81
2022-08-08T04:11:11.056Z,16.84
2022-08-08T04:14:04.014Z,16.79
2022-08-08T04:16:38.542Z,16.85
2022-08-08T04:19:23.317Z,16.75
2022-08-08T04:21:54.353Z,16.80
2022-08-08T04:24:29.298Z,16.85
2022-08-08T04:26:59.652Z,16.75
2022-08-08T04:29:36.644Z,16.62
2022-08-08T04:32:06.899Z,16.75
2022-08-08T04:34:49.259Z,16.93
2022-08-08T04:37:21.186Z,17.11
2022-08-08T04:40:06.621Z,17.24
2022-08-08T04:42:56.038Z,17.42
2022-08-08T04:45:27.019Z,17.57
2022-08-08T04:48:00.465Z,17.79
2022-08-08T04:50:38.476Z,17.97
2022-08-08T04:53:13.898Z,18.15
2022-08-08T04:55:56.243Z,18.36
2022-08-08T04:58:25.811Z,18.35
2022-08-08T05:00:52.821Z,18.58
2022-08-08T05:04:08.260Z,18.86
2022-08-08T05:06:13.308Z,19.08
2022-08-08T05:08:51.859Z,18.98
2022-08-08T05:11:22.499Z,19.20
2022-08-08T05:13:58.008Z,19.29
2022-08-08T05:16:54.854Z,19.36
2022-08-08T05:20:09.884Z,19.49
2022-08-08T05:22:11.199Z,19.54
2022-08-08T05:24:38.894Z,19.36
2022-08-08T05:27:07.693Z,19.68
2022-08-08T05:29:35.917Z,19.82
2022-08-08T05:32:07.277Z,19.92
2022-08-08T05:34:46.615Z,20.12
2022-08-08T05:37:39.455Z,20.14
2022-08-08T05:40:14.642Z,20.37
2022-08-08T05:42:51.797Z,20.38
2022-08-08T05:45:25.514Z,20.46
2022-08-08T05:48:08.160Z,20.56
2022-08-08T05:50:39.900Z,20.61
2022-08-08T05:53:53.839Z,20.79
2022-08-08T05:56:10.244Z,20.89
2022-08-08T05:58:56.884Z,20.98
2022-08-08T06:01:56.547Z,21.10
2022-08-08T06:04:29.424Z,21.04
2022-08-08T06:07:03.930Z,21.17
2022-08-08T06:09:57.992Z,21.30
2022-08-08T06:12:29.612Z,21.27
2022-08-08T06:15:06.115Z,21.22
2022-08-08T06:18:18.296Z,21.47
2022-08-08T06:20:27.130Z,21.51
2022-08-08T06:22:57.874Z,21.34
2022-08-08T06:25:33.431Z,21.60
2022-08-08T06:28:54.036Z,21.56
2022-08-08T06:31:32.221Z,21.78
2022-08-08T06:34:26.965Z,21.75
2022-08-08T06:37:00.174Z,21.92
2022-08-08T06:39:33.276Z,22.06
2022-08-08T06:42:02.948Z,22.28
2022-08-08T06:44:30.436Z,22.55
2022-08-08T06:46:58.959Z,22.26
2022-08-08T06:49:55.031Z,22.61
2022-08-08T06:52:16.051Z,22.75
2022-08-08T06:54:44.706Z,22.64
2022-08-08T06:57:16.154Z,22.79
2022-08-08T07:00:10.255Z,23.10
2022-08-08T07:02:34.166Z,22.96
2022-08-08T07:05:06.873Z,23.05
2022-08-08T07:07:52.286Z,23.19
2022-08-08T07:10:27.209Z,23.41
2022-08-08T07:13:06.886Z,23.43
2022-08-08T07:16:04.290Z,23.70
2022-08-08T07:19:09.761Z,23.67
2022-08-08T07:22:05.452Z,23.75
2022-08-08T07:25:02.373Z,24.02
2022-08-08T07:27:55.722Z,24.29
2022-08-08T07:30:32.341Z,24.51
2022-08-08T07:33:11.686Z,24.70
2022-08-08T07:35:47.288Z,24.94
2022-08-08T07:38:25.528Z,25.22
2022-08-08T07:41:04.524Z,25.22
2022-08-08T07:43:37.509Z,25.55
2022-08-08T07:46:24.148Z,25.58
2022-08-08T07:48:56.750Z,25.76
2022-08-08T07:51:45.549Z,25.66
2022-08-08T07:54:29.407Z,26.08
2022-08-08T07:57:09.132Z,26.40
2022-08-08T07:59:52.909Z,26.63
2022-08-08T08:02:41.723Z,26.98
2022-08-08T08:05:33.568Z,26.81
2022-08-08T08:08:21.652Z,26.97
2022-08-08T08:10:56.840Z,27.09
2022-08-08T08:14:07.563Z,27.02
2022-08-08T08:16:41.144Z,26.94
2022-08-08T08:19:14.991Z,27.00
2022-08-08T08:21:57.346Z,27.29
2022-08-08T08:24:32.436Z,27.62
2022-08-08T08:27:02.571Z,27.62
2022-08-08T08:29:33.135Z,27.65
2022-08-08T08:32:05.453Z,27.96
2022-08-08T08:34:37.229Z,28.03
2022-08-08T08:37:15.519Z,28.09
2022-08-08T08:40:02.003Z,27.94
2022-08-08T08:42:36.160Z,28.23
2022-08-08T08:45:21.004Z,27.87
2022-08-08T08:47:52.993Z,28.16
2022-08-08T08:50:32.793Z,28.22
2022-08-08T08:53:27.666Z,28.04
2022-08-08T08:56:01.219Z,28.46
2022-08-08T08:58:35.476Z,28.35
2022-08-08T09:01:10.418Z,28.54
2022-08-08T09:03:50.642Z,28.56
2022-08-08T09:06:33.476Z,28.71
2022-08-08T09:09:35.268Z,28.53
2022-08-08T09:12:10.410Z,28.46
2022-08-08T09:14:42.410Z,28.80
2022-08-08T09:17:17.443Z,28.40
2022-08-08T09:21:57.303Z,28.59
2022-08-08T09:22:40.140Z,29.02
2022-08-08T09:25:09.702Z,29.00
2022-08-08T09:27:55.769Z,29.23
2022-08-08T09:30:29.641Z,29.09
2022-08-08T09:33:54.656Z,28.92
2022-08-08T09:35:49.596Z,29.02
2022-08-08T09:38:53.006Z,29.54
2022-08-08T09:42:15.234Z,29.95
2022-08-08T09:44:40.714Z,30.00
2022-08-08T09:47:26.700Z,30.06
2022-08-08T09:50:04.799Z,30.60
2022-08-08T09:52:58.441Z,30.92
2022-08-08T09:55:31.208Z,31.61
2022-08-08T09:58:27.736Z,31.10
2022-08-08T10:01:14.200Z,31.32
2022-08-08T10:03:56.075Z,31.70
2022-08-08T10:06:29.201Z,31.98
2022-08-08T10:08:56.742Z,31.59
2022-08-08T10:12:26.313Z,32.21
2022-08-08T10:14:34.831Z,32.62
2022-08-08T10:17:57.458Z,32.93
2022-08-08T10:20:01.789Z,33.41
2022-08-08T10:22:34.295Z,33.16
2022-08-08T10:25:07.306Z,32.95
2022-08-08T10:27:50.564Z,33.01
2022-08-08T10:30:59.717Z,32.93
2022-08-08T10:33:12.356Z,33.14
2022-08-08T10:36:09.783Z,33.19
2022-08-08T10:38:35.696Z,33.43
2022-08-08T10:41:17.452Z,33.42
2022-08-08T10:43:51.665Z,33.13
2022-08-08T10:46:30.197Z,33.23
2022-08-08T10:48:59.431Z,32.97
2022-08-08T10:51:31.529Z,32.51
2022-08-08T10:54:07.660Z,32.96
2022-08-08T10:56:36.108Z,33.18
2022-08-08T10:59:10.217Z,33.37
2022-08-08T11:01:54.472Z,33.37
2022-08-08T11:04:29.826Z,33.74
2022-08-08T11:07:01.025Z,34.07
2022-08-08T11:09:32.136Z,33.96
2022-08-08T11:12:04.906Z,34.08
2022-08-08T11:14:51.364Z,34.18
2022-08-08T11:17:58.108Z,34.02
2022-08-08T11:20:27.592Z,34.19
2022-08-08T11:23:05.711Z,34.36
2022-08-08T11:25:52.874Z,33.92
2022-08-08T11:28:29.637Z,33.92
2022-08-08T11:31:08.665Z,34.00
2022-08-08T11:33:53.117Z,33.80
2022-08-08T11:36:29.395Z,33.42
2022-08-08T11:38:57.516Z,33.43
2022-08-08T11:41:33.846Z,33.03
2022-08-08T11:44:05.396Z,32.85
2022-08-08T11:46:36.882Z,32.40
2022-08-08T11:49:11.375Z,32.02
2022-08-08T11:51:49.877Z,31.98
2022-08-08T11:54:27.202Z,32.59
2022-08-08T11:57:27.552Z,33.44
2022-08-08T12:00:02.901Z,33.94
2022-08-08T12:02:48.924Z,33.90
2022-08-08T12:05:18.464Z,34.02
2022-08-08T12:07:53.675Z,33.66
2022-08-08T12:10:31.884Z,33.34
2022-08-08T12:13:09.734Z,33.21
2022-08-08T12:15:49.138Z,33.59
2022-08-08T12:18:25.828Z,33.01
2022-08-08T12:20:56.645Z,32.65
2022-08-08T12:23:42.826Z,32.75
2022-08-08T12:26:35.803Z,32.65
2022-08-08T12:29:25.804Z,32.76
2022-08-08T12:32:20.238Z,32.68
2022-08-08T12:35:04.777Z,32.88
2022-08-08T12:37:48.140Z,32.61
2022-08-08T12:40:54.190Z,32.66
2022-08-08T12:43:46.369Z,32.82
2022-08-08T12:46:26.820Z,32.42
2022-08-08T12:51:58.906Z,31.88
2022-08-08T12:54:40.912Z,31.45
2022-08-08T12:57:26.105Z,31.45
2022-08-08T13:00:04.171Z,31.43
2022-08-08T13:02:37.951Z,31.16
2022-08-08T13:05:26.351Z,31.49
2022-08-08T13:08:21.903Z,31.59
2022-08-08T13:10:58.474Z,31.57
2022-08-08T13:13:35.522Z,31.56
2022-08-08T13:16:21.204Z,31.62
2022-08-08T13:18:57.619Z,31.88
2022-08-08T13:21:49.234Z,32.05
2022-08-08T13:24:18.751Z,31.99
2022-08-08T13:27:13.079Z,32.26
2022-08-08T13:29:58.772Z,32.40
2022-08-08T13:32:37.234Z,32.48
2022-08-08T13:35:25.164Z,32.34
2022-08-08T13:38:08.125Z,32.68
2022-08-08T13:40:44.946Z,32.64
2022-08-08T13:43:16.132Z,32.67
2022-08-08T13:45:47.431Z,32.15
2022-08-08T13:48:19.654Z,32.41
2022-08-08T13:50:56.890Z,32.01
2022-08-08T13:53:36.393Z,32.03
2022-08-08T13:56:11.310Z,31.84
2022-08-08T13:58:57.904Z,31.74
2022-08-08T14:01:41.779Z,31.66
2022-08-08T14:04:25.118Z,31.61
2022-08-08T14:07:04.476Z,31.47
2022-08-08T14:10:04.734Z,31.54
2022-08-08T14:12:21.364Z,31.97
2022-08-08T14:14:48.243Z,31.73
2022-08-08T14:17:22.172Z,31.92
2022-08-08T14:19:57.128Z,31.94
2022-08-08T14:22:42.206Z,31.90
2022-08-08T14:25:15.264Z,32.02
2022-08-08T14:28:00.229Z,31.57
2022-08-08T14:30:35.781Z,31.50
2022-08-08T14:33:11.198Z,31.45
2022-08-08T14:35:43.227Z,31.46
2022-08-08T14:38:34.177Z,31.71
2022-08-08T14:41:48.767Z,31.70
2022-08-08T14:44:13.289Z,31.71
2022-08-08T14:47:00.147Z,31.65
2022-08-08T14:49:37.895Z,31.52
2022-08-08T14:52:26.731Z,31.69
2022-08-08T14:54:58.879Z,31.51
2022-08-08T14:58:06.067Z,31.20
2022-08-08T15:00:15.445Z,30.81
2022-08-08T15:02:59.123Z,30.87
2022-08-08T15:05:54.407Z,30.84
2022-08-08T15:08:35.484Z,30.89
2022-08-08T15:11:09.376Z,31.24
2022-08-08T15:14:01.344Z,31.33
2022-08-08T15:16:28.813Z,31.60
2022-08-08T15:18:55.981Z,31.50
2022-08-08T15:21:22.857Z,31.71
2022-08-08T15:23:59.466Z,31.47
2022-08-08T15:26:28.933Z,31.45
2022-08-08T15:28:57.151Z,31.39
2022-08-08T15:32:03.661Z,31.00
2022-08-08T15:34:31.899Z,31.08
2022-08-08T15:37:05.014Z,30.93
2022-08-08T15:39:38.244Z,31.13
2022-08-08T15:42:10.323Z,30.79
2022-08-08T15:44:38.543Z,30.73
2022-08-08T15:47:07.329Z,30.61
2022-08-08T15:49:44.695Z,30.37
2022-08-08T15:52:20.507Z,30.47
2022-08-08T15:54:55.710Z,30.44
2022-08-08T15:57:25.245Z,30.39
2022-08-08T16:00:05.749Z,30.02
2022-08-08T16:02:50.271Z,29.86
2022-08-08T16:05:20.528Z,29.98
2022-08-08T16:07:51.192Z,29.67
2022-08-08T16:13:03.455Z,29.46
2022-08-08T16:13:30.932Z,29.54
2022-08-08T16:16:09.495Z,29.52
2022-08-08T16:18:53.300Z,29.60
2022-08-08T16:21:31.621Z,29.47
2022-08-08T16:24:04.892Z,29.49
2022-08-08T16:26:36.403Z,29.68
2022-08-08T16:29:18.744Z,29.56
2022-08-08T16:31:50.838Z,29.63
2022-08-08T16:34:21.106Z,29.55
2022-08-08T16:36:51.729Z,29.62
2022-08-08T16:39:27.856Z,29.24
2022-08-08T16:42:18.516Z,29.21
2022-08-08T16:44:47.534Z,29.23
2022-08-08T16:47:39.825Z,29.07
2022-08-08T16:50:15.752Z,29.00
2022-08-08T16:55:05.349Z,29.19
2022-08-08T16:55:52.441Z,29.04
2022-08-08T16:58:25.821Z,28.85
2022-08-08T17:00:58.812Z,28.87
2022-08-08T17:03:58.592Z,28.62
2022-08-08T17:06:41.792Z,28.44
2022-08-08T17:09:14.970Z,28.15
2022-08-08T17:11:49.151Z,27.97
2022-08-08T17:14:27.405Z,27.64
2022-08-08T17:16:58.637Z,27.72
2022-08-08T17:19:30.478Z,27.65
2022-08-08T17:22:06.098Z,27.48
2022-08-08T17:24:33.833Z,27.38
2022-08-08T17:27:02.941Z,27.22
2022-08-08T17:29:43.902Z,27.13
2022-08-08T17:32:34.161Z,26.82
2022-08-08T17:35:53.664Z,26.89
2022-08-08T17:38:00.264Z,26.84
2022-08-08T17:40:32.767Z,26.74
2022-08-08T17:42:59.722Z,26.73
2022-08-08T17:45:26.852Z,26.64
2022-08-08T17:47:59.842Z,26.45
2022-08-08T17:50:27.084Z,26.49
2022-08-08T17:52:57.685Z,26.68
2022-08-08T17:56:07.011Z,26.59
2022-08-08T17:58:15.796Z,26.54
2022-08-08T18:00:42.705Z,26.56
2022-08-08T18:03:25.383Z,26.35
2022-08-08T18:05:52.413Z,26.38
2022-08-08T18:08:24.988Z,26.38
2022-08-08T18:11:11.771Z,26.16
2022-08-08T18:13:44.393Z,26.03
2022-08-08T18:16:20.644Z,26.14
2022-08-08T18:18:53.424Z,25.83
2022-08-08T18:21:35.650Z,25.88
2022-08-08T18:24:21.131Z,25.79
2022-08-08T18:26:55.871Z,25.70
2022-08-08T18:29:34.059Z,25.57
2022-08-08T18:32:10.458Z,25.74
2022-08-08T18:34:44.392Z,25.78
2022-08-08T18:37:17.870Z,25.83
2022-08-08T18:40:07.952Z,25.65
2022-08-08T18:42:45.594Z,25.82
2022-08-08T18:46:00.530Z,25.80
2022-08-08T18:48:07.723Z,25.79
2022-08-08T18:50:39.501Z,25.64
2022-08-08T18:53:09.163Z,25.64
2022-08-08T18:55:43.897Z,25.59
2022-08-08T18:58:11.025Z,25.59
2022-08-08T19:00:37.998Z,25.51
2022-08-08T19:03:09.664Z,25.47
2022-08-08T19:05:44.211Z,25.52
2022-08-08T19:08:28.504Z,25.48
2022-08-08T19:11:02.510Z,25.55
2022-08-08T19:13:53.891Z,25.42
2022-08-08T19:16:28.422Z,25.52
2022-08-08T19:19:02.977Z,25.37
2022-08-08T19:21:49.219Z,25.38
2022-08-08T19:24:34.115Z,25.22
2022-08-08T19:27:05.850Z,25.08
2022-08-08T19:29:42.325Z,25.07
2022-08-08T19:32:19.627Z,25.12
2022-08-08T19:34:51.484Z,25.14
2022-08-08T19:37:19.192Z,25.04
2022-08-08T19:40:14.620Z,24.99
2022-08-08T19:42:44.158Z,24.98
2022-08-08T19:45:14.146Z,25.05
2022-08-08T19:48:01.574Z,24.86
2022-08-08T19:50:29.057Z,24.76
2022-08-08T19:53:00.289Z,24.85
2022-08-08T19:55:27.277Z,24.90
2022-08-08T19:58:04.119Z,24.86
2022-08-08T20:00:35.366Z,24.77
2022-08-08T20:03:14.806Z,24.66
2022-08-08T20:06:15.521Z,24.54
2022-08-08T20:08:48.054Z,24.52
2022-08-08T20:11:15.763Z,24.56
2022-08-08T20:14:12.340Z,24.48
2022-08-08T20:16:30.266Z,24.51
2022-08-08T20:18:57.483Z,24.42
2022-08-08T20:21:26.033Z,24.38
2022-08-08T20:23:57.579Z,24.34
2022-08-08T20:26:33.342Z,24.16
2022-08-08T20:29:04.152Z,24.19
2022-08-08T20:31:47.058Z,24.14
2022-08-08T20:34:30.008Z,24.09
2022-08-08T20:37:04.642Z,24.15
2022-08-08T20:39:41.323Z,23.99
2022-08-08T20:42:28.541Z,23.86
2022-08-08T20:44:57.326Z,23.82
2022-08-08T20:47:25.548Z,23.78
2022-08-08T20:49:54.092Z,23.54
2022-08-08T20:52:23.386Z,23.48
2022-08-08T20:54:50.379Z,23.63
2022-08-08T20:57:19.024Z,23.58
2022-08-08T20:59:50.442Z,23.37
2022-08-08T21:02:27.004Z,23.40
2022-08-08T21:05:00.378Z,23.29
2022-08-08T21:07:31.314Z,23.25
2022-08-08T21:10:17.215Z,23.07
2022-08-08T21:12:46.214Z,22.95
2022-08-08T21:15:16.493Z,22.76
2022-08-08T21:18:02.944Z,22.81
2022-08-08T21:20:34.497Z,22.75
2022-08-08T21:23:02.965Z,22.74
2022-08-08T21:25:36.288Z,22.72
2022-08-08T21:28:09.464Z,22.66
2022-08-08T21:30:51.898Z,22.69
2022-08-08T21:33:20.537Z,22.67
2022-08-08T21:36:16.630Z,22.52
2022-08-08T21:38:37.381Z,22.45
2022-08-08T21:41:04.328Z,22.61
2022-08-08T21:43:34.192Z,22.52
2022-08-08T21:48:06.768Z,22.49
2022-08-08T21:49:03.369Z,22.37
2022-08-08T21:54:16.922Z,22.11
2022-08-08T21:54:52.215Z,22.10
2022-08-08T21:57:09.630Z,22.01
2022-08-08T22:00:03.070Z,22.07
2022-08-08T22:02:28.950Z,22.00
2022-08-08T22:04:58.838Z,22.02
2022-08-08T22:07:34.688Z,22.22
2022-08-08T22:10:18.250Z,22.07
2022-08-08T22:13:16.908Z,22.08
2022-08-08T22:15:44.073Z,21.92
2022-08-08T22:18:33.038Z,21.65
2022-08-08T22:21:14.632Z,21.42
2022-08-08T22:23:51.848Z,21.42
2022-08-08T22:26:27.013Z,21.49
2022-08-08T22:29:04.626Z,21.50
2022-08-08T22:31:58.809Z,21.43
2022-08-08T22:34:39.470Z,21.40
2022-08-08T22:37:49.207Z,21.45
2022-08-08T22:40:02.350Z,21.40
2022-08-08T22:42:34.587Z,21.36
2022-08-08T22:45:12.433Z,21.23
2022-08-08T22:47:49.146Z,21.28
2022-08-08T22:50:27.033Z,21.25
2022-08-08T22:54:30.676Z,21.22
2022-08-08T22:55:59.826Z,21.20
2022-08-08T22:58:35.373Z,21.14
2022-08-08T23:01:26.555Z,20.96
2022-08-08T23:04:00.423Z,20.83
2022-08-08T23:06:29.904Z,20.91
2022-08-08T23:09:00.643Z,20.87
2022-08-08T23:12:29.129Z,20.66
2022-08-08T23:14:25.658Z,20.91
2022-08-08T23:16:59.111Z,20.86
2022-08-08T23:19:30.772Z,20.83
2022-08-08T23:22:05.158Z,20.88
2022-08-08T23:24:41.629Z,20.86
2022-08-08T23:27:10.974Z,20.89
2022-08-08T23:29:49.360Z,20.82
2022-08-08T23:32:22.948Z,20.94
2022-08-08T23:34:59.233Z,20.88
2022-08-08T23:38:00.816Z,20.71
2022-08-08T23:40:15.590Z,20.68
2022-08-08T23:42:45.328Z,20.60
2022-08-08T23:45:13.446Z,20.61
2022-08-08T23:49:01.956Z,20.42
2022-08-08T23:50:30.699Z,20.46
2022-08-08T23:53:03.619Z,20.43
2022-08-08T23:55:42.055Z,20.36
2022-08-08T23:58:09.610Z,20.33
